Terminal Aerodrome Forecast
Issued by NWS

Home | Current Version | Previous Version | Graphics & Text | Print | Product List | Glossary On
Versions: 1 2 3 4 5 6 7 8 9 10 11 12 13 14 15 16 17 18 19 20 21 22 23 24
298
FTUS43 KLOT 230906 AAA
TAFDPA
TAF AMD
KDPA 230906Z 2309/2406 05007KT P6SM BKN250
     FM231600 05012KT P6SM BKN120 OVC200
     FM240200 06006KT P6SM SCT020 OVC060
     FM240500 07006KT P6SM VCSH BKN020=

USA.gov is the U.S. government's official web portal to all federal, state and local government web resources and services.